Time;durP1;ratioP1;P1;durP2;ratioP2;P2;SDS_P1;SDS_P2;PMS_P1;PMS_P2;Temp;Humidity;BMP_temperature;BMP_pressure;BME280_temperature;BME280_humidity;BME280_pressure;Samples;Min_cycle;Max_cycle;Signal;HPM_P1;HPM_P2
2021/04/16 00:01:53;;;;;;;7.80;3.47;;;4.20;99.90;;;;;;5103266;28;20545;-63
2021/04/16 00:04:20;;;;;;;7.57;3.40;;;4.20;99.90;;;;;;5114855;28;20453;-62
2021/04/16 00:06:47;;;;;;;9.00;3.33;;;4.20;99.90;;;;;;5113503;28;20550;-63
2021/04/16 00:09:14;;;;;;;8.10;3.17;;;4.20;99.90;;;;;;5097909;28;20452;-62
2021/04/16 00:11:46;;;;;;;8.73;3.17;;;4.20;99.90;;;;;;5111675;28;20448;-63
2021/04/16 00:14:12;;;;;;;7.80;3.33;;;4.20;99.90;;;;;;5108148;28;20458;-64
2021/04/16 00:19:36;;;;;;;8.80;3.43;;;4.40;99.90;;;;;;5114203;28;20464;-62
2021/04/16 00:22:03;;;;;;;8.13;3.33;;;4.50;99.90;;;;;;5111279;28;20418;-63
2021/04/16 00:24:29;;;;;;;7.60;3.30;;;4.60;99.90;;;;;;5113880;28;20541;-63
2021/04/16 00:26:56;;;;;;;7.40;3.17;;;4.70;99.90;;;;;;5108948;27;20478;-63
2021/04/16 00:29:22;;;;;;;6.67;2.90;;;4.80;99.90;;;;;;5094285;28;20458;-66
2021/04/16 00:31:51;;;;;;;9.00;3.77;;;4.90;99.90;;;;;;5093799;28;20631;-62
2021/04/16 00:34:19;;;;;;;7.80;3.07;;;4.90;99.90;;;;;;5095528;28;20455;-63
2021/04/16 00:36:46;;;;;;;8.93;2.97;;;5.00;99.90;;;;;;5093555;28;20814;-63
2021/04/16 00:39:12;;;;;;;10.00;4.00;;;5.10;99.90;;;;;;5097764;28;20448;-62
2021/04/16 00:41:39;;;;;;;7.93;3.80;;;5.20;99.90;;;;;;5102525;28;20450;-63
2021/04/16 00:44:05;;;;;;;8.50;4.50;;;5.20;99.90;;;;;;5093867;28;20438;-63
2021/04/16 00:46:38;;;;;;;8.50;4.10;;;5.20;99.90;;;;;;5093272;28;20456;-64
2021/04/16 00:49:06;;;;;;;9.70;4.70;;;5.30;99.90;;;;;;5095039;28;20462;-63
2021/04/16 00:51:36;;;;;;;9.67;3.83;;;5.30;99.90;;;;;;5100762;28;20448;-63
2021/04/16 00:54:06;;;;;;;12.53;3.73;;;5.20;99.90;;;;;;5094291;28;20476;-63
2021/04/16 00:56:32;;;;;;;9.00;3.63;;;5.30;99.90;;;;;;5093397;28;20455;-63
2021/04/16 00:59:00;;;;;;;7.83;3.00;;;5.40;99.90;;;;;;5093646;28;20508;-63
2021/04/16 01:01:26;;;;;;;9.33;3.60;;;5.40;99.90;;;;;;5113000;28;20514;-62
2021/04/16 01:03:53;;;;;;;8.03;3.50;;;5.50;99.90;;;;;;5113700;28;20492;-64
2021/04/16 01:06:21;;;;;;;8.30;3.63;;;5.50;99.90;;;;;;5112629;28;20462;-63
2021/04/16 01:08:48;;;;;;;9.20;4.00;;;5.40;99.90;;;;;;5107559;28;20456;-64
2021/04/16 01:11:15;;;;;;;9.97;4.40;;;5.40;99.90;;;;;;5105957;28;20451;-64
2021/04/16 01:13:46;;;;;;;9.90;3.60;;;5.50;99.90;;;;;;5113770;28;20460;-63
2021/04/16 01:16:16;;;;;;;9.77;3.10;;;5.60;99.90;;;;;;5096671;28;20822;-62
2021/04/16 01:18:46;;;;;;;10.00;4.17;;;5.60;99.90;;;;;;5093518;28;20451;-63
2021/04/16 01:21:15;;;;;;;8.17;3.13;;;5.60;99.90;;;;;;5098025;28;20510;-63
2021/04/16 01:23:48;;;;;;;9.40;3.03;;;5.70;99.90;;;;;;5112780;28;20494;-65
2021/04/16 01:26:20;;;;;;;7.60;3.30;;;5.60;99.90;;;;;;5112924;28;20434;-64
2021/04/16 01:28:46;;;;;;;8.17;3.70;;;5.60;99.90;;;;;;5109002;28;20485;-63
2021/04/16 01:31:16;;;;;;;7.27;3.30;;;5.60;99.90;;;;;;5113423;28;20449;-65
2021/04/16 01:33:45;;;;;;;8.63;3.20;;;5.70;99.90;;;;;;5108563;28;20795;-65
2021/04/16 01:36:13;;;;;;;8.43;3.80;;;5.60;99.90;;;;;;5095913;28;20427;-64
2021/04/16 01:38:40;;;;;;;9.30;3.37;;;5.60;99.90;;;;;;5092823;28;20457;-63
2021/04/16 01:41:07;;;;;;;7.80;3.13;;;5.60;99.90;;;;;;5092568;28;20451;-64
2021/04/16 01:43:37;;;;;;;7.50;3.00;;;5.60;99.90;;;;;;5107875;28;20481;-64
2021/04/16 01:46:05;;;;;;;8.00;3.27;;;5.70;99.90;;;;;;5111809;28;20496;-62
2021/04/16 01:48:38;;;;;;;7.77;3.43;;;5.70;99.90;;;;;;5111146;28;20480;-63
2021/04/16 01:51:05;;;;;;;8.10;3.73;;;5.70;99.90;;;;;;5092118;28;20543;-64
2021/04/16 01:53:32;;;;;;;9.10;4.00;;;5.60;99.90;;;;;;5093559;27;20458;-63
2021/04/16 01:55:58;;;;;;;7.93;3.40;;;5.60;99.90;;;;;;5092050;28;20477;-63
2021/04/16 01:58:24;;;;;;;7.80;3.60;;;5.60;99.90;;;;;;5092446;28;20538;-63
2021/04/16 02:00:52;;;;;;;9.43;3.97;;;5.60;99.90;;;;;;5092775;28;20532;-63
2021/04/16 02:03:19;;;;;;;8.57;3.97;;;5.60;99.90;;;;;;5092271;28;20446;-63
2021/04/16 02:05:45;;;;;;;7.70;3.43;;;5.60;99.90;;;;;;5092069;28;20957;-64
2021/04/16 02:08:12;;;;;;;8.73;3.87;;;5.50;99.90;;;;;;5103983;28;20486;-64
2021/04/16 02:10:38;;;;;;;8.40;3.70;;;5.60;99.90;;;;;;5107693;28;20535;-65
2021/04/16 02:13:06;;;;;;;8.87;3.77;;;5.50;99.90;;;;;;5098500;28;20979;-62
2021/04/16 02:15:32;;;;;;;8.00;3.40;;;5.60;99.90;;;;;;5102718;28;20459;-64
2021/04/16 02:17:59;;;;;;;7.43;3.73;;;5.50;99.90;;;;;;5112048;28;20499;-63
2021/04/16 02:20:27;;;;;;;8.50;2.70;;;5.50;99.90;;;;;;5111893;28;20456;-63
2021/04/16 02:22:54;;;;;;;9.07;4.00;;;5.50;99.90;;;;;;5102323;28;20453;-63
2021/04/16 02:25:21;;;;;;;10.03;4.20;;;5.50;99.90;;;;;;5097349;28;20457;-62
2021/04/16 02:27:48;;;;;;;8.67;3.90;;;5.50;99.90;;;;;;5092069;28;20535;-63
2021/04/16 02:30:18;;;;;;;7.70;3.30;;;5.50;99.90;;;;;;5097723;28;20529;-64
2021/04/16 02:32:44;;;;;;;8.30;4.23;;;5.50;99.90;;;;;;5110940;27;20447;-63
2021/04/16 02:35:13;;;;;;;8.60;3.87;;;5.40;99.90;;;;;;5112429;28;20929;-65
2021/04/16 02:37:39;;;;;;;8.80;3.80;;;5.40;99.90;;;;;;5106692;28;20541;-65
2021/04/16 02:40:08;;;;;;;15.10;3.23;;;5.30;99.90;;;;;;5101034;28;20493;-63
2021/04/16 02:42:34;;;;;;;8.63;3.90;;;5.30;99.90;;;;;;5110620;28;20459;-64
2021/04/16 02:45:00;;;;;;;7.40;3.80;;;5.20;99.90;;;;;;5097504;28;20480;-63
2021/04/16 02:47:27;;;;;;;11.40;4.07;;;5.30;99.90;;;;;;5091600;28;20517;-63
2021/04/16 02:49:53;;;;;;;7.67;3.20;;;5.20;99.90;;;;;;5102114;28;20478;-64
2021/04/16 02:52:20;;;;;;;8.40;3.70;;;5.20;99.90;;;;;;5101703;28;20973;-63
2021/04/16 02:54:47;;;;;;;8.10;3.70;;;5.20;99.90;;;;;;5091997;28;20460;-65
2021/04/16 02:57:13;;;;;;;9.03;3.50;;;5.20;99.90;;;;;;5095671;28;20456;-65
2021/04/16 02:59:40;;;;;;;10.03;3.80;;;5.20;99.90;;;;;;5111885;28;20539;-63
2021/04/16 03:02:07;;;;;;;10.03;4.57;;;5.20;99.90;;;;;;5094804;28;20444;-65
2021/04/16 03:04:33;;;;;;;9.40;4.27;;;5.30;99.90;;;;;;5091454;28;20448;-63
2021/04/16 03:07:00;;;;;;;7.67;3.27;;;5.30;99.90;;;;;;5098445;28;20546;-63
2021/04/16 03:09:27;;;;;;;11.40;3.97;;;5.20;99.90;;;;;;5099919;28;20501;-63
2021/04/16 03:11:53;;;;;;;9.00;4.30;;;5.30;99.90;;;;;;5110966;28;20564;-63
2021/04/16 03:14:20;;;;;;;10.60;3.80;;;5.30;99.90;;;;;;5100095;28;20448;-64
2021/04/16 03:16:47;;;;;;;8.60;4.23;;;5.40;99.90;;;;;;5091416;28;20452;-63
2021/04/16 03:19:13;;;;;;;7.60;3.53;;;5.40;99.90;;;;;;5097297;28;20450;-65
2021/04/16 03:21:39;;;;;;;8.67;3.40;;;5.40;99.90;;;;;;5116042;27;20889;-64
2021/04/16 03:24:07;;;;;;;9.03;3.70;;;5.40;99.90;;;;;;5101254;28;20432;-62
2021/04/16 03:26:34;;;;;;;7.77;3.50;;;5.40;99.90;;;;;;5097497;28;20460;-63
2021/04/16 03:29:01;;;;;;;11.10;4.00;;;5.40;99.90;;;;;;5115485;28;20427;-63
2021/04/16 03:31:28;;;;;;;9.13;4.70;;;5.50;99.90;;;;;;5114559;28;20454;-64
2021/04/16 03:33:56;;;;;;;8.50;3.70;;;5.50;99.90;;;;;;5095385;28;20449;-63
2021/04/16 03:36:22;;;;;;;8.13;4.37;;;5.50;99.90;;;;;;5095141;28;20945;-64
2021/04/16 03:38:49;;;;;;;12.27;4.20;;;5.50;99.90;;;;;;5109452;28;20427;-63
2021/04/16 03:41:16;;;;;;;8.90;3.23;;;5.50;99.90;;;;;;5095158;28;20421;-62
2021/04/16 03:43:44;;;;;;;10.23;4.60;;;5.50;99.90;;;;;;5105587;28;20454;-62
2021/04/16 03:46:10;;;;;;;10.03;4.03;;;5.50;99.90;;;;;;5113457;28;20464;-63
2021/04/16 03:48:37;;;;;;;9.13;4.10;;;5.50;99.90;;;;;;5105308;28;20566;-62
2021/04/16 03:51:04;;;;;;;9.97;4.10;;;5.60;99.90;;;;;;5115346;28;20454;-63
2021/04/16 03:53:30;;;;;;;9.73;4.30;;;5.50;99.90;;;;;;5104954;28;20453;-63
2021/04/16 03:55:57;;;;;;;17.00;5.30;;;5.50;99.90;;;;;;5094339;28;20438;-66
2021/04/16 03:58:23;;;;;;;10.50;4.80;;;5.40;99.90;;;;;;5099253;28;20436;-64
2021/04/16 04:00:51;;;;;;;8.67;3.90;;;5.20;99.90;;;;;;5094261;28;20875;-63
2021/04/16 04:03:18;;;;;;;12.97;4.97;;;5.30;99.90;;;;;;5107236;28;20439;-63
2021/04/16 04:05:44;;;;;;;10.03;4.30;;;5.20;99.90;;;;;;5097996;28;20522;-66
2021/04/16 04:08:11;;;;;;;9.63;3.80;;;5.10;99.90;;;;;;5095292;28;20486;-65
2021/04/16 04:10:38;;;;;;;9.33;4.30;;;5.10;99.90;;;;;;5111589;28;20443;-65
2021/04/16 04:13:06;;;;;;;9.27;4.40;;;5.10;99.90;;;;;;5104240;28;20426;-64
2021/04/16 04:15:33;;;;;;;10.00;5.23;;;5.00;99.90;;;;;;5094059;28;20446;-63
2021/04/16 04:18:01;;;;;;;10.60;4.93;;;4.90;99.90;;;;;;5106361;28;20955;-65
2021/04/16 04:20:30;;;;;;;12.00;5.43;;;4.80;99.90;;;;;;5094635;28;20547;-63
2021/04/16 04:22:57;;;;;;;11.37;5.17;;;4.80;99.90;;;;;;5105499;28;20489;-63
2021/04/16 04:25:26;;;;;;;10.83;4.63;;;4.70;99.90;;;;;;5103071;28;20451;-63
2021/04/16 04:27:53;;;;;;;10.40;4.50;;;4.70;99.90;;;;;;5114165;28;20862;-65
2021/04/16 04:30:22;;;;;;;11.95;5.20;;;4.60;99.90;;;;;;5112170;28;20439;-64
2021/04/16 04:32:48;;;;;;;13.70;6.10;;;4.60;99.90;;;;;;5095072;28;20560;-63
2021/04/16 04:35:16;;;;;;;14.53;4.80;;;4.50;99.90;;;;;;5106182;28;20503;-63
2021/04/16 04:37:43;;;;;;;16.73;6.97;;;4.50;99.90;;;;;;5101167;28;20447;-63
2021/04/16 04:40:11;;;;;;;11.67;3.17;;;4.50;99.90;;;;;;5101647;28;20806;-57
2021/04/16 04:42:37;;;;;;;15.87;4.80;;;5.00;99.90;;;;;;5098908;28;20455;-55
2021/04/16 04:45:05;;;;;;;12.60;3.90;;;8.40;99.90;;;;;;5101241;28;20506;-52
2021/04/16 04:47:31;;;;;;;10.10;4.83;;;9.00;99.90;;;;;;5093500;28;20546;-58
2021/04/16 04:49:57;;;;;;;9.03;4.23;;;9.70;99.90;;;;;;5093758;28;20517;-57
2021/04/16 04:52:28;;;;;;;9.63;4.90;;;10.00;99.90;;;;;;5093792;28;20553;-64
2021/04/16 04:54:57;;;;;;;9.67;4.23;;;9.40;99.90;;;;;;5103792;28;20474;-64
2021/04/16 04:57:25;;;;;;;8.80;4.50;;;8.60;99.90;;;;;;5097424;28;20445;-65
2021/04/16 04:59:51;;;;;;;10.50;4.70;;;8.10;99.90;;;;;;5108630;28;20473;-63
2021/04/16 05:02:20;;;;;;;7.67;3.90;;;7.60;99.90;;;;;;5106127;27;20450;-65
2021/04/16 05:04:47;;;;;;;14.60;5.07;;;7.30;99.90;;;;;;5108698;28;20528;-65
2021/04/16 05:07:14;;;;;;;14.77;5.50;;;6.90;99.90;;;;;;5113308;28;20510;-63
2021/04/16 05:09:41;;;;;;;10.67;4.30;;;6.70;99.90;;;;;;5112133;28;20470;-65
2021/04/16 05:12:08;;;;;;;11.23;5.50;;;6.40;99.90;;;;;;5106132;28;20459;-64
2021/04/16 05:14:35;;;;;;;9.27;4.77;;;6.20;99.90;;;;;;5110789;28;20486;-64
2021/04/16 05:17:01;;;;;;;9.03;4.60;;;6.10;99.90;;;;;;5113068;28;20529;-63
2021/04/16 05:19:28;;;;;;;8.63;4.87;;;6.00;99.90;;;;;;5108587;28;21005;-63
2021/04/16 05:21:56;;;;;;;8.90;4.97;;;5.90;99.90;;;;;;5104968;28;21004;-65
2021/04/16 05:24:23;;;;;;;12.47;5.20;;;5.70;99.90;;;;;;5100620;28;20446;-65
2021/04/16 05:26:50;;;;;;;9.50;5.50;;;5.60;99.90;;;;;;5101972;28;20808;-65
2021/04/16 05:29:17;;;;;;;11.60;5.63;;;5.60;99.90;;;;;;5103165;28;20420;-64
2021/04/16 05:31:43;;;;;;;12.07;5.70;;;5.50;99.90;;;;;;5097704;28;20545;-64
2021/04/16 05:34:09;;;;;;;11.03;5.60;;;5.60;99.90;;;;;;5108149;27;20463;-64
2021/04/16 05:36:35;;;;;;;10.10;5.20;;;5.60;99.90;;;;;;5109156;28;20449;-64
2021/04/16 05:39:02;;;;;;;10.13;5.27;;;5.60;99.90;;;;;;5104338;28;20466;-63
2021/04/16 05:41:29;;;;;;;10.95;5.80;;;5.60;99.90;;;;;;5098687;28;20429;-64
2021/04/16 05:43:56;;;;;;;10.83;5.07;;;5.80;99.90;;;;;;5101755;28;20548;-67
2021/04/16 05:46:23;;;;;;;14.43;6.00;;;;;;;;;;5109635;27;20943;-64
2021/04/16 05:48:49;;;;;;;11.30;5.37;;;;;;;;;;5098863;28;20531;-63
2021/04/16 05:51:16;;;;;;;14.17;5.67;;;;;;;;;;5105009;28;20820;-61
2021/04/16 05:53:42;;;;;;;12.93;6.33;;;6.10;99.90;;;;;;5095750;28;20446;-63
2021/04/16 05:56:10;;;;;;;10.70;6.50;;;6.10;99.90;;;;;;5095487;28;20507;-64
2021/04/16 05:58:36;;;;;;;9.97;4.83;;;6.20;99.90;;;;;;5091446;28;20457;-64
2021/04/16 06:01:03;;;;;;;14.87;6.70;;;6.10;99.90;;;;;;5098707;28;20503;-64
2021/04/16 06:03:31;;;;;;;12.53;5.50;;;6.10;99.90;;;;;;5091957;28;21068;-63
2021/04/16 06:05:58;;;;;;;10.90;4.97;;;6.20;99.90;;;;;;5106691;28;20842;-63
2021/04/16 06:08:25;;;;;;;10.60;5.80;;;6.10;99.90;;;;;;5103103;28;20484;-63
2021/04/16 06:10:51;;;;;;;15.80;6.27;;;6.10;99.90;;;;;;5097148;28;20461;-63
2021/04/16 06:13:18;;;;;;;14.20;5.97;;;6.10;99.90;;;;;;5097743;28;20451;-63
2021/04/16 06:15:44;;;;;;;12.30;5.67;;;5.90;99.90;;;;;;5096658;28;20486;-64
2021/04/16 06:18:11;;;;;;;12.23;6.50;;;6.00;99.90;;;;;;5101372;28;20463;-62
2021/04/16 06:20:38;;;;;;;12.07;6.47;;;6.10;99.90;;;;;;5098726;28;20539;-62
2021/04/16 06:23:04;;;;;;;13.83;6.30;;;6.10;99.90;;;;;;5104679;28;20448;-64
2021/04/16 06:25:33;;;;;;;9.90;5.30;;;6.10;99.90;;;;;;5104959;28;20535;-63
2021/04/16 06:28:00;;;;;;;13.83;6.87;;;6.10;99.90;;;;;;5098792;28;20817;-63
2021/04/16 06:30:27;;;;;;;11.20;5.90;;;6.20;99.90;;;;;;5100105;28;20453;-65
2021/04/16 06:33:06;;;;;;;13.67;6.13;;;6.30;99.90;;;;;;5107205;28;20453;-64
2021/04/16 06:35:35;;;;;;;9.43;6.20;;;6.20;99.90;;;;;;5105714;28;20492;-63
2021/04/16 06:38:03;;;;;;;11.90;6.00;;;6.30;99.90;;;;;;5107235;28;20447;-63
2021/04/16 06:40:31;;;;;;;10.00;5.03;;;6.40;99.90;;;;;;5095069;28;20661;-64
2021/04/16 06:42:58;;;;;;;11.93;5.37;;;6.40;99.90;;;;;;5097449;28;20488;-64
2021/04/16 06:45:28;;;;;;;10.73;5.50;;;6.50;99.90;;;;;;5107492;28;20461;-63
2021/04/16 06:47:57;;;;;;;11.63;6.13;;;6.40;99.90;;;;;;5102978;28;20901;-66
2021/04/16 06:50:26;;;;;;;11.00;6.27;;;6.50;99.90;;;;;;5110045;28;20458;-63
2021/04/16 06:52:59;;;;;;;11.20;5.57;;;6.50;99.90;;;;;;5108886;28;20453;-63
2021/04/16 06:55:30;;;;;;;11.00;5.40;;;6.50;99.90;;;;;;5115018;28;20452;-64
2021/04/16 06:58:01;;;;;;;15.30;5.83;;;6.60;99.90;;;;;;5112539;28;20470;-65
2021/04/16 07:00:36;;;;;;;12.63;5.70;;;6.70;99.90;;;;;;5102439;28;20463;-67
2021/04/16 07:03:07;;;;;;;11.37;5.77;;;6.80;99.90;;;;;;5104091;28;20452;-67
2021/04/16 07:05:38;;;;;;;10.53;5.40;;;6.80;99.90;;;;;;5102846;28;20964;-66
2021/04/16 07:08:06;;;;;;;9.93;5.60;;;6.80;99.90;;;;;;5105972;28;20626;-63
2021/04/16 07:10:37;;;;;;;9.97;5.37;;;6.90;99.90;;;;;;5102460;28;20460;-65
2021/04/16 07:13:07;;;;;;;8.83;5.07;;;6.90;99.90;;;;;;5105849;27;20445;-64
2021/04/16 07:15:39;;;;;;;9.80;4.03;;;7.20;99.90;;;;;;5102676;28;20523;-64
2021/04/16 07:18:06;;;;;;;8.77;4.30;;;7.70;99.90;;;;;;5103018;28;20453;-61
2021/04/16 07:20:33;;;;;;;9.33;4.33;;;8.00;99.90;;;;;;5092906;28;20529;-60
2021/04/16 07:22:59;;;;;;;7.37;3.53;;;8.40;99.90;;;;;;5093111;28;20521;-62
2021/04/16 07:25:35;;;;;;;8.20;4.13;;;9.00;99.90;;;;;;5092996;28;20888;-63
2021/04/16 07:28:04;;;;;;;8.63;4.20;;;9.90;99.90;;;;;;5092716;28;21113;-62
2021/04/16 07:30:37;;;;;;;8.37;4.63;;;10.70;99.90;;;;;;5093054;28;20535;-60
2021/04/16 07:33:04;;;;;;;8.30;4.40;;;10.90;99.90;;;;;;5092890;28;20506;-63
2021/04/16 07:35:32;;;;;;;7.37;3.83;;;10.40;99.90;;;;;;5092024;28;20434;-65
2021/04/16 07:38:06;;;;;;;9.40;4.17;;;10.50;99.90;;;;;;5092975;28;20927;-64
2021/04/16 07:40:37;;;;;;;9.53;4.53;;;10.90;99.90;;;;;;5099259;28;21019;-63
2021/04/16 07:43:04;;;;;;;8.30;3.87;;;11.90;99.90;;;;;;5093330;28;20446;-61
2021/04/16 07:45:43;;;;;;;8.30;3.90;;;11.30;99.90;;;;;;5100211;28;20449;-60
2021/04/16 07:48:30;;;;;;;8.30;3.60;;;11.10;99.90;;;;;;5107724;28;20595;-64
2021/04/16 07:50:58;;;;;;;8.33;3.00;;;11.90;99.90;;;;;;5092975;28;21053;-60
2021/04/16 07:53:34;;;;;;;7.90;2.83;;;13.40;99.90;;;;;;5098655;28;20446;-64
2021/04/16 07:56:17;;;;;;;8.87;4.10;;;14.60;99.90;;;;;;5099590;28;20606;-66
2021/04/16 07:58:47;;;;;;;7.20;3.57;;;14.70;99.90;;;;;;5093794;28;20533;-65
2021/04/16 08:01:20;;;;;;;7.80;3.37;;;15.20;97.90;;;;;;5094068;28;20529;-65
2021/04/16 08:03:50;;;;;;;8.87;3.90;;;15.80;96.60;;;;;;5093770;28;20491;-65
2021/04/16 08:06:30;;;;;;;8.23;3.27;;;16.30;93.30;;;;;;5097999;27;20548;-67
2021/04/16 08:08:56;;;;;;;7.43;2.60;;;16.00;90.70;;;;;;5108036;28;20477;-65
2021/04/16 08:11:26;;;;;;;8.67;3.23;;;17.10;89.60;;;;;;5105163;28;20955;-64
2021/04/16 08:13:57;;;;;;;6.93;3.30;;;18.30;85.40;;;;;;5096756;28;20453;-65
2021/04/16 08:16:25;;;;;;;7.93;3.27;;;17.30;80.90;;;;;;5113430;28;20441;-64
2021/04/16 08:19:06;;;;;;;7.60;3.20;;;17.30;80.70;;;;;;5094677;28;20512;-68
2021/04/16 08:21:36;;;;;;;6.83;2.70;;;17.10;78.40;;;;;;5092925;28;20442;-65
2021/04/16 08:24:09;;;;;;;7.57;3.77;;;18.10;79.20;;;;;;5091863;28;20586;-65
2021/04/16 08:26:40;;;;;;;12.33;2.80;;;18.50;75.60;;;;;;5104075;28;20524;-65
2021/04/16 08:29:18;;;;;;;6.33;2.70;;;19.40;72.40;;;;;;5112449;28;20845;-65
2021/04/16 08:31:56;;;;;;;7.67;2.60;;;20.50;72.00;;;;;;5112776;28;20938;-65
2021/04/16 08:34:28;;;;;;;7.73;3.27;;;19.60;65.10;;;;;;5099857;28;20562;-64
2021/04/16 08:36:58;;;;;;;8.63;2.77;;;18.60;66.00;;;;;;5101826;28;20541;-64
2021/04/16 08:39:29;;;;;;;7.73;2.40;;;17.90;64.60;;;;;;5104024;28;20484;-66
2021/04/16 08:42:03;;;;;;;8.33;2.87;;;16.90;63.00;;;;;;5112171;28;20536;-67
2021/04/16 08:44:34;;;;;;;8.00;2.73;;;15.60;63.10;;;;;;5093175;28;21142;-68
2021/04/16 08:47:01;;;;;;;7.00;2.40;;;14.20;67.50;;;;;;5099951;28;20449;-69
2021/04/16 08:49:31;;;;;;;6.27;2.30;;;13.50;69.10;;;;;;5103032;28;20877;-64
2021/04/16 08:52:18;;;;;;;5.80;2.50;;;13.20;70.20;;;;;;5095749;28;20533;-65
2021/04/16 08:54:47;;;;;;;6.60;2.77;;;13.20;72.60;;;;;;5101063;28;20457;-68
2021/04/16 08:57:19;;;;;;;6.00;2.00;;;13.10;73.60;;;;;;5099177;28;20453;-65
2021/04/16 08:59:58;;;;;;;7.63;2.73;;;13.10;74.50;;;;;;5098357;28;20445;-64
2021/04/16 09:02:29;;;;;;;6.53;2.30;;;12.60;74.50;;;;;;5098589;28;20495;-66
2021/04/16 09:05:02;;;;;;;7.20;2.47;;;13.70;74.40;;;;;;5100233;28;20470;-68
2021/04/16 09:07:39;;;;;;;5.73;2.30;;;14.70;76.10;;;;;;5101078;28;20484;-65
2021/04/16 09:10:27;;;;;;;8.50;2.23;;;14.60;71.60;;;;;;5098065;27;20477;-65
2021/04/16 09:12:56;;;;;;;6.33;2.47;;;13.80;71.20;;;;;;5092153;28;20951;-65
2021/04/16 09:15:45;;;;;;;6.47;2.10;;;14.50;75.20;;;;;;5100812;28;20446;-65
2021/04/16 09:18:24;;;;;;;5.50;1.80;;;15.40;70.00;;;;;;5095708;28;20820;-66
2021/04/16 09:21:17;;;;;;;7.00;2.07;;;16.20;66.30;;;;;;5093109;28;21011;-66
2021/04/16 09:24:05;;;;;;;5.33;1.63;;;15.70;64.80;;;;;;5091474;28;20959;-65
2021/04/16 09:26:57;;;;;;;6.37;2.07;;;15.30;64.40;;;;;;5092565;28;20446;-66
2021/04/16 09:29:45;;;;;;;6.80;1.87;;;15.30;67.10;;;;;;5092358;28;20930;-65
2021/04/16 09:32:49;;;;;;;7.37;1.50;;;18.00;65.20;;;;;;5092986;28;20458;-68
2021/04/16 09:36:01;;;;;;;5.20;1.60;;;20.80;62.60;;;;;;5092367;28;20457;-65
2021/04/16 09:38:47;;;;;;;4.90;1.60;;;21.00;58.20;;;;;;5092180;28;20473;-67
2021/04/16 09:41:32;;;;;;;9.33;2.23;;;21.60;53.30;;;;;;5079734;28;20545;-65
2021/04/16 09:44:01;;;;;;;4.53;1.30;;;19.30;53.20;;;;;;5092483;28;20454;-68
2021/04/16 09:46:47;;;;;;;7.30;1.40;;;18.50;54.20;;;;;;5091779;28;20532;-67
2021/04/16 09:49:39;;;;;;;6.87;1.93;;;19.40;53.60;;;;;;5091950;28;20568;-66
2021/04/16 09:52:42;;;;;;;5.33;1.50;;;20.30;53.30;;;;;;5092473;28;20545;-64
2021/04/16 09:55:46;;;;;;;7.50;1.97;;;19.50;51.60;;;;;;5110889;28;20864;-64
2021/04/16 09:58:34;;;;;;;4.93;1.73;;;19.40;52.80;;;;;;5112256;28;20453;-63
2021/04/16 10:01:07;;;;;;;5.30;2.20;;;18.60;52.40;;;;;;5112461;28;21107;-64
2021/04/16 10:03:45;;;;;;;6.30;1.90;;;17.20;54.00;;;;;;5112506;28;20852;-63
2021/04/16 10:06:37;;;;;;;6.43;2.00;;;17.30;53.80;;;;;;5111882;28;20449;-63
2021/04/16 10:09:26;;;;;;;6.10;2.20;;;19.00;54.10;;;;;;5097058;28;20477;-63
2021/04/16 10:11:55;;;;;;;5.80;1.47;;;20.50;52.40;;;;;;5112051;28;20456;-64
2021/04/16 10:14:30;;;;;;;5.77;1.20;;;22.60;53.70;;;;;;5100349;28;20485;-54
2021/04/16 10:16:58;;;;;;;4.80;1.10;;;23.10;53.90;;;;;;5098474;28;20446;-53
2021/04/16 10:19:28;;;;;;;5.20;1.20;;;23.10;56.50;;;;;;5095089;28;20525;-56
2021/04/16 10:21:54;;;;;;;4.77;1.27;;;24.90;56.30;;;;;;5092796;28;20450;-56
2021/04/16 12:39:42;;;;;;;6.93;2.00;;;24.80;44.50;;;;;;5100869;28;20465;-60
2021/04/16 12:42:10;;;;;;;6.43;2.90;;;24.90;43.40;;;;;;5101883;28;20495;-60
2021/04/16 12:44:39;;;;;;;6.73;2.20;;;25.50;45.80;;;;;;5101242;28;20518;-61
2021/04/16 12:47:10;;;;;;;6.10;2.30;;;26.70;42.60;;;;;;5096896;28;20478;-64
2021/04/16 12:49:37;;;;;;;5.20;1.87;;;26.40;41.80;;;;;;5103085;28;21053;-61
2021/04/16 12:52:06;;;;;;;5.93;2.20;;;25.10;42.80;;;;;;5097792;27;20448;-62
2021/04/16 12:54:37;;;;;;;5.23;2.10;;;25.90;43.10;;;;;;5100409;28;20818;-63
2021/04/16 12:57:05;;;;;;;5.40;1.90;;;25.50;41.60;;;;;;5100663;28;20438;-63
2021/04/16 12:59:31;;;;;;;6.10;2.47;;;26.90;44.70;;;;;;5101065;28;20514;-63
2021/04/16 13:01:58;;;;;;;5.70;1.90;;;27.60;42.90;;;;;;5102173;28;20540;-59
2021/04/16 13:04:26;;;;;;;6.40;2.03;;;27.80;41.40;;;;;;5099902;28;20446;-59
2021/04/16 13:06:58;;;;;;;5.83;1.80;;;26.10;39.50;;;;;;5116579;27;20449;-62
2021/04/16 13:09:25;;;;;;;5.70;2.10;;;25.20;42.40;;;;;;5109855;28;20596;-64
2021/04/16 13:11:51;;;;;;;6.00;1.93;;;25.60;41.80;;;;;;5099951;28;20450;-65
2021/04/16 13:14:19;;;;;;;4.97;2.00;;;26.80;41.90;;;;;;5099278;28;20541;-64
2021/04/16 13:16:46;;;;;;;5.20;1.93;;;27.30;41.60;;;;;;5098945;28;20491;-62
2021/04/16 13:19:22;;;;;;;5.07;2.07;;;25.60;41.00;;;;;;5098288;28;20456;-63
2021/04/16 13:21:48;;;;;;;5.60;2.10;;;24.90;42.30;;;;;;5099877;28;20799;-62
2021/04/16 13:24:16;;;;;;;6.20;2.40;;;24.50;41.10;;;;;;5100988;28;20460;-66
2021/04/16 13:26:42;;;;;;;5.50;2.20;;;24.00;40.70;;;;;;5098276;28;20894;-63
2021/04/16 13:29:09;;;;;;;5.20;1.80;;;22.70;40.50;;;;;;5102697;28;20869;-62
2021/04/16 13:31:38;;;;;;;7.70;1.83;;;21.70;42.50;;;;;;5103788;28;20667;-63
2021/04/16 13:34:05;;;;;;;6.33;1.80;;;22.20;42.90;;;;;;5100780;28;20449;-62
2021/04/16 13:36:33;;;;;;;7.60;2.37;;;24.60;43.00;;;;;;5092938;28;20449;-63
2021/04/16 13:39:00;;;;;;;5.47;2.03;;;26.70;43.80;;;;;;5090216;28;20454;-63
2021/04/16 13:41:28;;;;;;;5.10;1.97;;;26.90;42.30;;;;;;5107730;28;20459;-63
2021/04/16 13:43:56;;;;;;;6.40;2.00;;;27.70;42.00;;;;;;5089680;28;20446;-63
2021/04/16 13:46:27;;;;;;;5.20;2.20;;;27.60;40.60;;;;;;5090869;28;20496;-63
2021/04/16 13:48:55;;;;;;;5.67;2.30;;;26.70;38.70;;;;;;5091562;28;20986;-64
2021/04/16 13:51:27;;;;;;;6.00;2.57;;;24.70;38.80;;;;;;5090367;28;20967;-63
2021/04/16 13:53:53;;;;;;;8.37;2.20;;;22.40;40.80;;;;;;5089062;28;20557;-63
2021/04/16 13:56:21;;;;;;;6.30;1.83;;;21.30;42.50;;;;;;5098806;28;20450;-62
2021/04/16 13:58:48;;;;;;;5.53;1.63;;;21.40;43.10;;;;;;5090878;28;20445;-65
2021/04/16 14:01:14;;;;;;;5.37;2.10;;;22.10;43.10;;;;;;5109875;28;21104;-62
2021/04/16 14:03:43;;;;;;;5.60;2.53;;;23.80;42.50;;;;;;5112338;28;20509;-66
2021/04/16 14:06:14;;;;;;;6.83;2.00;;;25.00;42.90;;;;;;5103297;28;20445;-62
2021/04/16 14:08:44;;;;;;;5.97;1.80;;;26.20;42.20;;;;;;5098588;28;20473;-63
2021/04/16 14:11:10;;;;;;;5.70;2.50;;;27.70;40.10;;;;;;5092062;28;20484;-64
2021/04/16 14:13:37;;;;;;;6.50;2.10;;;25.70;38.70;;;;;;5105090;28;21002;-62
2021/04/16 14:16:07;;;;;;;5.77;2.40;;;23.40;39.70;;;;;;5112188;28;20445;-62
2021/04/16 14:18:38;;;;;;;5.63;1.93;;;23.50;40.60;;;;;;5099863;28;20533;-64
2021/04/16 14:21:04;;;;;;;5.27;1.93;;;25.50;42.60;;;;;;5092178;28;20975;-62
2021/04/16 14:23:31;;;;;;;8.13;3.23;;;26.90;43.30;;;;;;5101114;28;20548;-65
2021/04/16 14:25:57;;;;;;;5.37;2.13;;;27.20;41.10;;;;;;5091681;28;20541;-62
2021/04/16 14:28:24;;;;;;;7.07;2.40;;;25.50;42.70;;;;;;5102537;28;20481;-62
2021/04/16 14:30:51;;;;;;;6.90;2.13;;;25.30;39.70;;;;;;5077885;28;20466;-62
2021/04/16 14:33:22;;;;;;;5.70;2.33;;;24.40;41.40;;;;;;5092216;28;20446;-64
2021/04/16 14:35:49;;;;;;;5.03;1.70;;;23.70;41.40;;;;;;5091765;28;20507;-61
2021/04/16 14:38:18;;;;;;;5.70;2.20;;;22.60;42.30;;;;;;5092946;28;20459;-64
2021/04/16 14:40:44;;;;;;;5.50;2.43;;;22.40;42.40;;;;;;5106732;28;20441;-66
2021/04/16 14:43:11;;;;;;;6.17;2.80;;;21.70;42.50;;;;;;5092008;28;20458;-63
2021/04/16 14:45:40;;;;;;;7.57;2.40;;;21.00;42.60;;;;;;5091955;28;20586;-64
2021/04/16 14:48:08;;;;;;;6.40;2.23;;;22.30;44.50;;;;;;5090885;28;20470;-65
2021/04/16 14:50:35;;;;;;;6.50;2.03;;;22.10;43.20;;;;;;5105315;28;20528;-64
2021/04/16 14:53:05;;;;;;;6.27;1.97;;;20.70;42.80;;;;;;5112191;28;20463;-64
2021/04/16 14:55:35;;;;;;;5.67;1.87;;;20.50;44.90;;;;;;5099110;28;20552;-64
2021/04/16 14:58:02;;;;;;;6.63;2.30;;;20.10;45.10;;;;;;5091852;28;20449;-64
2021/04/16 15:00:31;;;;;;;5.47;2.10;;;20.00;44.00;;;;;;5109383;28;20453;-64
2021/04/16 15:02:57;;;;;;;5.77;2.27;;;19.30;43.70;;;;;;5111893;28;20946;-63
2021/04/16 15:05:25;;;;;;;5.23;1.93;;;18.50;44.40;;;;;;5100424;28;20934;-64
2021/04/16 15:07:56;;;;;;;5.80;2.00;;;18.20;44.70;;;;;;5102418;28;20447;-64
2021/04/16 15:10:25;;;;;;;6.40;2.30;;;17.50;45.70;;;;;;5099357;28;20456;-63
2021/04/16 15:12:51;;;;;;;6.67;2.30;;;17.30;47.20;;;;;;5101805;28;20479;-64
2021/04/16 15:15:27;;;;;;;6.77;2.87;;;16.80;46.90;;;;;;5100950;28;20449;-64
2021/04/16 15:17:55;;;;;;;5.73;2.00;;;16.40;47.40;;;;;;5104645;28;20531;-63
2021/04/16 15:20:23;;;;;;;6.37;2.10;;;16.50;48.70;;;;;;5108086;28;21008;-65
2021/04/16 15:22:49;;;;;;;5.50;2.00;;;16.50;49.00;;;;;;5103312;28;20446;-63